DAL76 KOKC-KATL
Flight info
| Callsign | DAL76 |
|---|---|
| Flight time | N/A |
| Altitude | 37000 |
| Route | FUNNL3 PHARA FSM MEMFS HUTCC KNSAW RUSSA GLAVN2 |
| Aircraft | A321/M-SDE3FGHIRWY/LB1 |
Departure
| Time | 2026-04-28 22:51 |
|---|---|
| Airport | OKC Will Rogers World Airport (KOKC) |
Arrival
| Time | N/A |
|---|---|
| Airport | Hartsfield Jackson Atlanta International Airport (KATL) |
| Time | Latitude | Longitude | Altitude | Speed | Heading |
|---|---|---|---|---|---|
| 2026-04-28 22:27 | 35.39454 | -97.59558 | 1301 ft | 0 kts | 351° |
| 2026-04-28 22:27 | 35.39454 | -97.59559 | 1301 ft | 0 kts | 351° |
| 2026-04-28 22:27 | 35.39454 | -97.59558 | 1301 ft | 0 kts | 351° |
| 2026-04-28 22:27 | 35.39453 | -97.59558 | 1301 ft | 0 kts | 351° |
| 2026-04-28 22:36 | 35.39432 | -97.59555 | 1301 ft | 4 kts | 358° |
| 2026-04-28 22:37 | 35.39405 | -97.59555 | 1301 ft | 4 kts | 2° |
| 2026-04-28 22:37 | 35.39381 | -97.59553 | 1301 ft | 4 kts | 317° |
| 2026-04-28 22:37 | 35.39376 | -97.59548 | 1301 ft | 2 kts | 285° |
| 2026-04-28 22:41 | 35.39382 | -97.59578 | 1301 ft | 7 kts | 283° |
| 2026-04-28 22:42 | 35.39392 | -97.59643 | 1300 ft | 9 kts | 276° |
| 2026-04-28 22:42 | 35.39394 | -97.59733 | 1299 ft | 16 kts | 266° |
| 2026-04-28 22:42 | 35.39328 | -97.59827 | 1297 ft | 16 kts | 189° |
| 2026-04-28 22:42 | 35.39232 | -97.59871 | 1298 ft | 14 kts | 232° |
| 2026-04-28 22:43 | 35.39216 | -97.60010 | 1297 ft | 25 kts | 270° |
| 2026-04-28 22:43 | 35.39217 | -97.60271 | 1299 ft | 27 kts | 267° |
| 2026-04-28 22:43 | 35.39155 | -97.60364 | 1299 ft | 13 kts | 170° |
| 2026-04-28 22:43 | 35.39011 | -97.60354 | 1299 ft | 26 kts | 178° |
| 2026-04-28 22:44 | 35.38838 | -97.60345 | 1300 ft | 24 kts | 176° |
| 2026-04-28 22:44 | 35.38674 | -97.60335 | 1298 ft | 24 kts | 178° |
| 2026-04-28 22:44 | 35.38506 | -97.60337 | 1294 ft | 24 kts | 180° |
| 2026-04-28 22:44 | 35.38340 | -97.60334 | 1293 ft | 23 kts | 179° |
| 2026-04-28 22:45 | 35.38179 | -97.60334 | 1291 ft | 23 kts | 180° |
| 2026-04-28 22:45 | 35.38024 | -97.60335 | 1293 ft | 19 kts | 179° |
| 2026-04-28 22:45 | 35.37955 | -97.60334 | 1294 ft | 8 kts | 180° |
| 2026-04-28 22:45 | 35.37922 | -97.60364 | 1295 ft | 5 kts | 244° |
| 2026-04-28 22:46 | 35.37918 | -97.60395 | 1296 ft | 5 kts | 272° |
| 2026-04-28 22:46 | 35.37920 | -97.60424 | 1296 ft | 0 kts | 274° |
| 2026-04-28 22:49 | 35.37921 | -97.60443 | 1296 ft | 8 kts | 273° |
| 2026-04-28 22:49 | 35.37927 | -97.60537 | 1296 ft | 11 kts | 290° |
| 2026-04-28 22:49 | 35.37992 | -97.60571 | 1295 ft | 11 kts | 360° |
| 2026-04-28 22:50 | 35.38069 | -97.60571 | 1296 ft | 13 kts | 0° |
| 2026-04-28 22:50 | 35.38348 | -97.60572 | 1293 ft | 84 kts | 360° |
| 2026-04-28 22:50 | 35.39204 | -97.60573 | 1298 ft | 158 kts | 360° |
| 2026-04-28 22:50 | 35.40414 | -97.60560 | 1790 ft | 183 kts | 0° |
| 2026-04-28 22:51 | 35.41684 | -97.60336 | 2731 ft | 185 kts | 25° |
| 2026-04-28 22:51 | 35.42521 | -97.59153 | 3625 ft | 197 kts | 70° |
| 2026-04-28 22:51 | 35.42614 | -97.57431 | 4123 ft | 208 kts | 98° |
| 2026-04-28 22:51 | 35.42398 | -97.55598 | 4289 ft | 229 kts | 102° |
| 2026-04-28 22:52 | 35.42119 | -97.53565 | 4569 ft | 256 kts | 102° |
| 2026-04-28 22:52 | 35.41857 | -97.51309 | 4975 ft | 278 kts | 100° |
| 2026-04-28 22:52 | 35.41645 | -97.48929 | 5575 ft | 290 kts | 98° |
| 2026-04-28 22:52 | 35.41486 | -97.46424 | 6299 ft | 299 kts | 97° |
| 2026-04-28 22:53 | 35.41369 | -97.43854 | 6996 ft | 305 kts | 96° |
| 2026-04-28 22:53 | 35.41279 | -97.41236 | 7733 ft | 310 kts | 95° |
| 2026-04-28 22:53 | 35.41202 | -97.38583 | 8479 ft | 314 kts | 95° |
| 2026-04-28 22:53 | 35.41128 | -97.35890 | 9231 ft | 318 kts | 95° |
| 2026-04-28 22:54 | 35.41051 | -97.33171 | 9980 ft | 321 kts | 96° |
| 2026-04-28 22:54 | 35.40965 | -97.30381 | 10369 ft | 338 kts | 96° |
| 2026-04-28 22:54 | 35.40863 | -97.27400 | 10550 ft | 361 kts | 96° |
| 2026-04-28 22:54 | 35.40756 | -97.24228 | 10695 ft | 383 kts | 95° |
| 2026-04-28 22:55 | 35.40650 | -97.20952 | 11054 ft | 395 kts | 95° |
| 2026-04-28 22:55 | 35.40539 | -97.17557 | 11646 ft | 402 kts | 95° |
| 2026-04-28 22:55 | 35.40427 | -97.14109 | 12239 ft | 408 kts | 95° |
| 2026-04-28 22:55 | 35.40314 | -97.10643 | 12865 ft | 414 kts | 95° |
| 2026-04-28 22:56 | 35.40198 | -97.07067 | 13505 ft | 419 kts | 95° |
| 2026-04-28 22:56 | 35.40082 | -97.03472 | 14085 ft | 425 kts | 95° |
| 2026-04-28 22:56 | 35.39961 | -96.99838 | 14659 ft | 429 kts | 95° |
| 2026-04-28 22:56 | 35.39836 | -96.96161 | 15215 ft | 434 kts | 95° |
| 2026-04-28 22:57 | 35.39735 | -96.92444 | 15759 ft | 439 kts | 91° |
| 2026-04-28 22:57 | 35.39955 | -96.88687 | 16302 ft | 445 kts | 86° |
| 2026-04-28 22:57 | 35.40266 | -96.84891 | 16861 ft | 450 kts | 85° |
| 2026-04-28 22:57 | 35.40581 | -96.81110 | 17404 ft | 454 kts | 85° |
| 2026-04-28 22:58 | 35.40903 | -96.77246 | 17928 ft | 459 kts | 85° |
| 2026-04-28 22:58 | 35.41226 | -96.73336 | 18392 ft | 462 kts | 85° |
| 2026-04-28 22:58 | 35.41550 | -96.69401 | 18824 ft | 467 kts | 85° |
| 2026-04-28 22:58 | 35.41877 | -96.65430 | 19263 ft | 470 kts | 85° |
| 2026-04-28 22:59 | 35.42200 | -96.61422 | 19716 ft | 475 kts | 85° |
| 2026-04-28 22:59 | 35.42521 | -96.57376 | 20171 ft | 478 kts | 86° |
| 2026-04-28 22:59 | 35.42844 | -96.53309 | 20636 ft | 482 kts | 86° |
| 2026-04-28 22:59 | 35.43171 | -96.49202 | 21078 ft | 486 kts | 86° |
| 2026-04-28 23:00 | 35.43501 | -96.45064 | 21514 ft | 489 kts | 85° |
| 2026-04-28 23:00 | 35.43832 | -96.40907 | 21952 ft | 492 kts | 85° |
| 2026-04-28 23:00 | 35.44164 | -96.36718 | 22367 ft | 495 kts | 85° |
| 2026-04-28 23:00 | 35.44487 | -96.32553 | 22775 ft | 500 kts | 86° |
| 2026-04-28 23:01 | 35.44816 | -96.28289 | 23217 ft | 503 kts | 86° |
| 2026-04-28 23:01 | 35.45144 | -96.24001 | 23620 ft | 508 kts | 86° |
| 2026-04-28 23:01 | 35.45473 | -96.19679 | 23988 ft | 510 kts | 86° |
| 2026-04-28 23:01 | 35.45804 | -96.15332 | 24356 ft | 513 kts | 86° |
| 2026-04-28 23:02 | 35.46134 | -96.10963 | 24738 ft | 516 kts | 86° |
| 2026-04-28 23:02 | 35.46380 | -96.06563 | 25104 ft | 517 kts | 92° |
| 2026-04-28 23:02 | 35.46275 | -96.02162 | 25468 ft | 517 kts | 95° |
| 2026-04-28 23:02 | 35.46123 | -95.97747 | 25823 ft | 520 kts | 95° |
| 2026-04-28 23:03 | 35.45966 | -95.93306 | 26174 ft | 522 kts | 95° |
| 2026-04-28 23:03 | 35.45804 | -95.88851 | 26519 ft | 524 kts | 96° |
| 2026-04-28 23:03 | 35.45635 | -95.84377 | 26861 ft | 526 kts | 96° |
| 2026-04-28 23:03 | 35.45467 | -95.79943 | 27176 ft | 528 kts | 96° |
| 2026-04-28 23:04 | 35.45298 | -95.75433 | 27483 ft | 531 kts | 96° |
| 2026-04-28 23:04 | 35.44964 | -95.66343 | 28116 ft | 536 kts | 96° |
| 2026-04-28 23:04 | 35.44791 | -95.61766 | 28437 ft | 538 kts | 96° |
| 2026-04-28 23:05 | 35.44612 | -95.57173 | 28754 ft | 540 kts | 96° |
| 2026-04-28 23:05 | 35.44432 | -95.52580 | 29183 ft | 539 kts | 96° |
| 2026-04-28 23:05 | 35.44250 | -95.47993 | 29601 ft | 538 kts | 96° |
| 2026-04-28 23:05 | 35.44066 | -95.43421 | 30016 ft | 537 kts | 96° |
| 2026-04-28 23:06 | 35.43879 | -95.38848 | 30375 ft | 537 kts | 97° |
| 2026-04-28 23:06 | 35.43695 | -95.34340 | 30725 ft | 536 kts | 97° |
| 2026-04-28 23:06 | 35.43509 | -95.29779 | 31061 ft | 535 kts | 97° |
| 2026-04-28 23:06 | 35.43322 | -95.25223 | 31389 ft | 536 kts | 97° |
| 2026-04-28 23:07 | 35.43130 | -95.20659 | 31739 ft | 536 kts | 98° |
| 2026-04-28 23:07 | 35.42937 | -95.16102 | 32107 ft | 535 kts | 98° |
| 2026-04-28 23:07 | 35.42744 | -95.11553 | 32472 ft | 534 kts | 98° |
| 2026-04-28 23:07 | 35.42550 | -95.07010 | 32855 ft | 533 kts | 98° |
| 2026-04-28 23:08 | 35.42352 | -95.02479 | 33242 ft | 532 kts | 98° |
| 2026-04-28 23:08 | 35.42153 | -94.97958 | 33616 ft | 531 kts | 99° |
| 2026-04-28 23:08 | 35.41956 | -94.93503 | 33926 ft | 531 kts | 98° |
| 2026-04-28 23:08 | 35.41753 | -94.88973 | 34166 ft | 533 kts | 98° |
| 2026-04-28 23:09 | 35.41551 | -94.84437 | 34417 ft | 533 kts | 97° |
| 2026-04-28 23:09 | 35.41349 | -94.79900 | 34653 ft | 534 kts | 98° |
| 2026-04-28 23:09 | 35.41142 | -94.75350 | 34901 ft | 535 kts | 97° |
| 2026-04-28 23:09 | 35.40935 | -94.70789 | 35146 ft | 536 kts | 97° |
| 2026-04-28 23:10 | 35.40727 | -94.66233 | 35445 ft | 536 kts | 97° |
| 2026-04-28 23:10 | 35.40517 | -94.61667 | 35711 ft | 537 kts | 97° |
| 2026-04-28 23:10 | 35.40313 | -94.57085 | 35985 ft | 537 kts | 96° |
| 2026-04-28 23:10 | 35.40093 | -94.52521 | 36241 ft | 538 kts | 97° |
| 2026-04-28 23:11 | 35.39870 | -94.48003 | 36493 ft | 538 kts | 97° |
| 2026-04-28 23:11 | 35.39646 | -94.43429 | 36745 ft | 539 kts | 97° |
| 2026-04-28 23:11 | 35.39422 | -94.38840 | 36862 ft | 540 kts | 97° |
| 2026-04-28 23:11 | 35.39196 | -94.34247 | 36881 ft | 540 kts | 97° |
| 2026-04-28 23:12 | 35.38731 | -94.25071 | 36877 ft | 539 kts | 97° |
| 2026-04-28 23:12 | 35.38136 | -94.15930 | 36893 ft | 538 kts | 98° |
| 2026-04-28 23:13 | 35.37442 | -94.06787 | 36905 ft | 539 kts | 98° |
| 2026-04-28 23:13 | 35.36755 | -93.97704 | 36916 ft | 539 kts | 98° |
| 2026-04-28 23:14 | 35.36095 | -93.88553 | 36909 ft | 539 kts | 98° |
| 2026-04-28 23:14 | 35.35444 | -93.79391 | 36908 ft | 540 kts | 98° |
| 2026-04-28 23:15 | 35.34780 | -93.70238 | 36932 ft | 539 kts | 98° |
| 2026-04-28 23:15 | 35.34102 | -93.61088 | 36941 ft | 539 kts | 98° |
| 2026-04-28 23:16 | 35.33416 | -93.51944 | 36942 ft | 539 kts | 98° |
| 2026-04-28 23:16 | 35.32723 | -93.42808 | 36942 ft | 540 kts | 98° |
| 2026-04-28 23:17 | 35.32036 | -93.33713 | 36951 ft | 542 kts | 99° |
| 2026-04-28 23:17 | 35.31329 | -93.24542 | 36988 ft | 544 kts | 96° |
| 2026-04-28 23:18 | 35.30609 | -93.15393 | 36953 ft | 539 kts | 98° |
| 2026-04-28 23:18 | 35.29907 | -93.06262 | 36974 ft | 540 kts | 99° |
| 2026-04-28 23:19 | 35.29299 | -92.98663 | 36957 ft | 539 kts | 98° |
| 2026-04-28 23:19 | 35.28557 | -92.89546 | 36951 ft | 535 kts | 99° |
| 2026-04-28 23:20 | 35.27700 | -92.79055 | 36894 ft | 532 kts | 99° |
| 2026-04-28 23:20 | 35.27078 | -92.71488 | 36937 ft | 536 kts | 99° |
| 2026-04-28 23:21 | 35.26335 | -92.62451 | 36957 ft | 538 kts | 98° |
| 2026-04-28 23:21 | 35.25587 | -92.53373 | 36947 ft | 533 kts | 98° |
| 2026-04-28 23:22 | 35.24837 | -92.44394 | 36962 ft | 530 kts | 98° |
| 2026-04-28 23:22 | 35.24071 | -92.35463 | 36948 ft | 536 kts | 98° |
| 2026-04-28 23:23 | 35.23288 | -92.26330 | 36952 ft | 541 kts | 99° |
| 2026-04-28 23:23 | 35.22506 | -92.17192 | 36929 ft | 538 kts | 99° |
| 2026-04-28 23:24 | 35.21722 | -92.08097 | 36955 ft | 538 kts | 99° |
| 2026-04-28 23:24 | 35.20917 | -91.99005 | 36952 ft | 537 kts | 99° |
| 2026-04-28 23:25 | 35.20111 | -91.89918 | 36939 ft | 538 kts | 99° |
| 2026-04-28 23:25 | 35.19312 | -91.80934 | 37000 ft | 533 kts | 99° |
| 2026-04-28 23:26 | 35.18469 | -91.71935 | 36978 ft | 534 kts | 99° |
| 2026-04-28 23:26 | 35.17656 | -91.62910 | 36976 ft | 533 kts | 99° |
| 2026-04-28 23:27 | 35.16857 | -91.53899 | 37001 ft | 534 kts | 99° |
| 2026-04-28 23:27 | 35.16029 | -91.44873 | 37020 ft | 534 kts | 99° |
| 2026-04-28 23:28 | 35.15187 | -91.35878 | 37008 ft | 534 kts | 100° |
| 2026-04-28 23:28 | 35.14335 | -91.26932 | 37015 ft | 527 kts | 99° |
| 2026-04-28 23:29 | 35.13511 | -91.18110 | 37005 ft | 525 kts | 100° |
| 2026-04-28 23:29 | 35.12657 | -91.09221 | 37009 ft | 528 kts | 99° |
| 2026-04-28 23:30 | 35.11808 | -91.00302 | 37040 ft | 530 kts | 100° |
| 2026-04-28 23:30 | 35.10939 | -90.91352 | 36947 ft | 532 kts | 100° |
| 2026-04-28 23:31 | 35.10065 | -90.82387 | 36954 ft | 531 kts | 100° |
| 2026-04-28 23:31 | 35.09181 | -90.73427 | 36974 ft | 532 kts | 101° |
| 2026-04-28 23:32 | 35.08282 | -90.64445 | 37040 ft | 534 kts | 101° |
| 2026-04-28 23:32 | 35.07391 | -90.55503 | 37025 ft | 535 kts | 101° |
| 2026-04-28 23:33 | 35.06486 | -90.46463 | 37039 ft | 537 kts | 101° |
| 2026-04-28 23:33 | 35.05570 | -90.37420 | 37069 ft | 537 kts | 102° |
| 2026-04-28 23:34 | 35.04637 | -90.28364 | 37045 ft | 540 kts | 102° |
| 2026-04-28 23:34 | 35.03706 | -90.19251 | 37038 ft | 541 kts | 102° |
| 2026-04-28 23:35 | 35.02771 | -90.10210 | 37054 ft | 542 kts | 102° |
| 2026-04-28 23:35 | 35.01814 | -90.01099 | 37057 ft | 542 kts | 102° |
| 2026-04-28 23:36 | 35.00776 | -89.91995 | 37048 ft | 543 kts | 104° |
| 2026-04-28 23:36 | 34.99492 | -89.82960 | 37032 ft | 540 kts | 106° |
| 2026-04-28 23:37 | 34.98141 | -89.73924 | 36994 ft | 544 kts | 105° |
| 2026-04-28 23:37 | 34.96804 | -89.64860 | 37038 ft | 548 kts | 104° |
| 2026-04-28 23:38 | 34.95505 | -89.55698 | 37048 ft | 550 kts | 104° |
| 2026-04-28 23:38 | 34.94217 | -89.46515 | 37067 ft | 550 kts | 104° |
| 2026-04-28 23:39 | 34.92911 | -89.37340 | 37081 ft | 549 kts | 104° |
| 2026-04-28 23:39 | 34.91578 | -89.28177 | 37082 ft | 549 kts | 105° |
| 2026-04-28 23:40 | 34.90232 | -89.19000 | 37091 ft | 551 kts | 105° |
| 2026-04-28 23:40 | 34.88887 | -89.09818 | 37092 ft | 551 kts | 105° |
| 2026-04-28 23:41 | 34.87565 | -89.00692 | 37115 ft | 550 kts | 105° |
| 2026-04-28 23:41 | 34.86235 | -88.91517 | 37098 ft | 554 kts | 105° |
| 2026-04-28 23:42 | 34.84852 | -88.82331 | 37061 ft | 556 kts | 105° |
| 2026-04-28 23:42 | 34.83432 | -88.73068 | 37064 ft | 556 kts | 104° |
| 2026-04-28 23:43 | 34.82069 | -88.63834 | 37054 ft | 553 kts | 102° |
| 2026-04-28 23:43 | 34.80718 | -88.54697 | 37031 ft | 552 kts | 104° |
| 2026-04-28 23:44 | 34.79319 | -88.45533 | 37074 ft | 550 kts | 105° |
| 2026-04-28 23:44 | 34.77891 | -88.36381 | 37028 ft | 545 kts | 103° |
| 2026-04-28 23:45 | 34.76519 | -88.27295 | 37071 ft | 550 kts | 104° |
| 2026-04-28 23:45 | 34.75097 | -88.18129 | 37091 ft | 552 kts | 105° |
| 2026-04-28 23:46 | 34.73661 | -88.08950 | 37078 ft | 553 kts | 105° |
| 2026-04-28 23:46 | 34.72229 | -87.99750 | 37093 ft | 554 kts | 104° |